Time;durP1;ratioP1;P1;durP2;ratioP2;P2;SDS_P1;SDS_P2;PMS_P1;PMS_P2;Temp;Humidity;BMP_temperature;BMP_pressure;BME280_temperature;BME280_humidity;BME280_pressure;Samples;Min_cycle;Max_cycle;Signal;HPM_P1;HPM_P2
2022/07/24 00:02:00;;;;;;;5.10;3.72;;;12.50;99.90;;;;;;5041438;28;20021;-81
2022/07/24 00:04:27;;;;;;;5.10;3.28;;;12.50;99.90;;;;;;5038314;28;20466;-77
2022/07/24 00:06:54;;;;;;;7.72;3.58;;;12.60;99.90;;;;;;5038585;28;20516;-85
2022/07/24 00:09:21;;;;;;;6.40;3.67;;;12.70;99.90;;;;;;5039934;28;20039;-84
2022/07/24 00:11:49;;;;;;;4.55;2.88;;;12.80;99.90;;;;;;5039141;28;20013;-84
2022/07/24 00:14:16;;;;;;;3.90;2.42;;;12.80;99.90;;;;;;5037366;28;20378;-82
2022/07/24 00:16:44;;;;;;;3.92;2.35;;;12.90;99.90;;;;;;5035989;28;20104;-80
2022/07/24 00:19:11;;;;;;;6.15;3.05;;;13.00;99.90;;;;;;5039698;28;20035;-81
2022/07/24 00:21:38;;;;;;;3.85;2.17;;;13.00;99.90;;;;;;5039500;28;20378;-82
2022/07/24 00:24:06;;;;;;;2.65;1.60;;;13.10;99.90;;;;;;5038859;28;20021;-82
2022/07/24 00:26:34;;;;;;;2.85;1.90;;;13.20;99.90;;;;;;5037043;28;20021;-87
2022/07/24 00:29:02;;;;;;;2.85;1.63;;;13.20;99.90;;;;;;5040136;28;20338;-85
2022/07/24 00:31:29;;;;;;;4.35;2.17;;;13.40;99.90;;;;;;5036676;28;20035;-87
2022/07/24 00:33:56;;;;;;;4.57;1.77;;;13.40;99.90;;;;;;5039802;28;20508;-85
2022/07/24 00:36:23;;;;;;;2.13;1.33;;;13.50;99.90;;;;;;5040358;28;20653;-86
2022/07/24 00:38:51;;;;;;;2.40;1.40;;;13.60;99.90;;;;;;5038635;28;20028;-87
2022/07/24 00:41:18;;;;;;;1.95;1.30;;;13.60;99.90;;;;;;5036777;28;20051;-85
2022/07/24 00:44:04;;;;;;;2.85;1.90;;;13.70;99.90;;;;;;5036794;28;20582;-83
2022/07/24 00:46:32;;;;;;;4.20;1.67;;;13.80;99.90;;;;;;5034889;28;20386;-82
2022/07/24 00:48:59;;;;;;;2.80;1.30;;;14.00;99.90;;;;;;5037338;28;20367;-83
2022/07/24 00:51:27;;;;;;;5.63;1.77;;;14.00;99.90;;;;;;5034951;28;20029;-83
2022/07/24 00:53:54;;;;;;;6.90;1.60;;;14.10;99.90;;;;;;5036484;28;20073;-81
2022/07/24 00:56:21;;;;;;;2.63;1.50;;;14.20;99.90;;;;;;5037986;28;20060;-84
2022/07/24 00:58:49;;;;;;;5.57;1.77;;;14.30;99.90;;;;;;5037087;28;20110;-81
2022/07/24 01:01:20;;;;;;;3.92;1.40;;;14.30;99.90;;;;;;5063782;28;20029;-80
2022/07/24 01:03:47;;;;;;;3.55;1.50;;;14.40;99.90;;;;;;5034981;28;20025;-81
2022/07/24 01:06:15;;;;;;;3.22;1.55;;;14.50;99.90;;;;;;5037098;28;20490;-81
2022/07/24 01:08:43;;;;;;;2.28;1.30;;;14.60;99.90;;;;;;5036375;28;20825;-81
2022/07/24 01:11:11;;;;;;;4.00;1.42;;;14.60;99.90;;;;;;5037184;28;20056;-80
2022/07/24 01:13:38;;;;;;;4.85;1.48;;;14.80;99.90;;;;;;5034615;28;20092;-80
2022/07/24 01:16:07;;;;;;;5.50;1.27;;;14.90;99.90;;;;;;5037525;28;20021;-81
2022/07/24 01:18:36;;;;;;;3.60;1.38;;;15.00;99.90;;;;;;5032889;28;20033;-82
2022/07/24 01:21:04;;;;;;;1.85;1.10;;;15.20;99.90;;;;;;5029499;28;20550;-82
2022/07/24 01:23:32;;;;;;;2.03;1.02;;;15.30;99.90;;;;;;5031480;28;20108;-80
2022/07/24 01:26:00;;;;;;;2.63;1.30;;;15.40;99.90;;;;;;5032575;28;20075;-81
2022/07/24 01:28:27;;;;;;;2.58;1.00;;;15.50;99.90;;;;;;5031719;28;21763;-81
2022/07/24 01:30:55;;;;;;;2.92;1.30;;;15.70;99.90;;;;;;5034528;28;20032;-82
2022/07/24 01:33:22;;;;;;;2.78;1.00;;;15.70;99.90;;;;;;5037118;28;20413;-82
2022/07/24 01:35:51;;;;;;;6.90;2.05;;;15.90;99.90;;;;;;5037843;28;20689;-80
2022/07/24 01:38:18;;;;;;;4.38;1.40;;;16.00;99.90;;;;;;5036901;28;20157;-75
2022/07/24 01:40:46;;;;;;;5.43;1.25;;;16.10;99.90;;;;;;5039408;28;20028;-76
2022/07/24 01:43:14;;;;;;;3.33;0.95;;;16.30;99.90;;;;;;5040793;28;20041;-83
2022/07/24 01:45:44;;;;;;;2.60;0.93;;;16.40;99.90;;;;;;5038309;28;20029;-80
2022/07/24 01:48:12;;;;;;;2.58;0.85;;;16.50;99.90;;;;;;5042440;28;20014;-74
2022/07/24 01:50:39;;;;;;;3.65;0.90;;;16.60;99.90;;;;;;5049184;28;20083;-79
2022/07/24 01:53:06;;;;;;;2.72;0.80;;;16.80;99.90;;;;;;5043148;28;20024;-74
2022/07/24 01:55:34;;;;;;;3.85;1.15;;;16.90;99.90;;;;;;5049723;28;20028;-74
2022/07/24 01:58:02;;;;;;;1.65;0.70;;;17.10;99.90;;;;;;5052495;28;20044;-73
2022/07/24 02:00:39;;;;;;;4.07;0.85;;;17.20;99.90;;;;;;5052321;28;20033;-84
2022/07/24 02:03:07;;;;;;;3.72;1.00;;;17.50;99.90;;;;;;5046448;28;20087;-87
2022/07/24 02:05:37;;;;;;;1.60;0.77;;;17.70;99.90;;;;;;5051647;28;20025;-80
2022/07/24 02:08:05;;;;;;;7.72;1.42;;;17.90;99.90;;;;;;5044138;28;20040;-76
2022/07/24 02:10:32;;;;;;;4.05;1.85;;;18.10;99.90;;;;;;5045547;28;20029;-75
2022/07/24 02:13:00;;;;;;;2.45;0.80;;;18.30;99.90;;;;;;5043945;28;20013;-83
2022/07/24 02:15:27;;;;;;;1.85;0.75;;;18.30;99.90;;;;;;5043919;28;20036;-84
2022/07/24 02:17:57;;;;;;;2.67;0.65;;;18.50;99.90;;;;;;5044572;28;20030;-82
2022/07/24 02:20:25;;;;;;;2.22;0.88;;;18.70;99.90;;;;;;5043307;28;20029;-79
2022/07/24 02:22:53;;;;;;;1.95;0.90;;;18.80;99.90;;;;;;5042257;28;20040;-73
2022/07/24 02:25:20;;;;;;;2.00;0.93;;;18.80;99.90;;;;;;5043094;28;20028;-74
2022/07/24 02:27:48;;;;;;;2.72;0.82;;;18.80;99.90;;;;;;5042680;28;20056;-78
2022/07/24 02:30:19;;;;;;;2.85;0.70;;;18.90;99.90;;;;;;5059210;28;20108;-73
2022/07/24 02:32:46;;;;;;;4.05;1.23;;;18.80;99.90;;;;;;5042425;28;20025;-75
2022/07/24 02:35:14;;;;;;;2.63;0.95;;;18.90;99.90;;;;;;5043250;28;20656;-82
2022/07/24 02:37:44;;;;;;;4.05;1.17;;;18.90;99.90;;;;;;5042688;28;20487;-77
2022/07/24 02:40:14;;;;;;;3.75;0.77;;;19.10;99.90;;;;;;5044926;28;20040;-90
2022/07/24 02:42:42;;;;;;;1.60;0.70;;;19.40;99.90;;;;;;5048657;28;20505;-88
2022/07/24 02:45:09;;;;;;;3.17;1.00;;;19.60;99.90;;;;;;5042935;28;20021;-88
2022/07/24 02:47:51;;;;;;;1.25;0.63;;;19.80;99.90;;;;;;5051536;28;20032;-83
2022/07/24 02:50:19;;;;;;;3.65;0.70;;;20.00;99.90;;;;;;5058444;28;20168;-86
2022/07/24 02:52:47;;;;;;;1.45;0.70;;;20.00;99.90;;;;;;5046099;28;20035;-77
2022/07/24 02:55:14;;;;;;;2.17;0.73;;;19.70;99.90;;;;;;5047613;28;20040;-75
2022/07/24 02:57:45;;;;;;;1.65;0.82;;;19.50;99.90;;;;;;5059811;28;20025;-81
2022/07/24 03:00:15;;;;;;;7.00;1.98;;;19.50;99.90;;;;;;5061067;28;20083;-79
2022/07/24 03:02:47;;;;;;;3.90;1.00;;;19.70;99.90;;;;;;5049539;28;20095;-75
2022/07/24 03:05:15;;;;;;;4.53;1.23;;;19.70;99.90;;;;;;5043077;28;20021;-85
2022/07/24 03:07:43;;;;;;;3.38;0.70;;;19.40;99.90;;;;;;5042152;28;20459;-77
2022/07/24 03:10:12;;;;;;;1.52;0.60;;;19.20;99.90;;;;;;5041176;28;20028;-84
2022/07/24 03:12:40;;;;;;;2.28;0.60;;;18.90;99.90;;;;;;5042609;28;20021;-87
2022/07/24 03:15:08;;;;;;;1.95;0.65;;;18.70;99.90;;;;;;5039763;28;20033;-80
2022/07/24 03:17:35;;;;;;;2.28;1.10;;;18.60;99.90;;;;;;5040208;28;20021;-81
2022/07/24 03:20:04;;;;;;;3.78;0.75;;;19.30;99.90;;;;;;5040559;28;20036;-75
2022/07/24 03:22:32;;;;;;;2.97;0.80;;;20.20;99.90;;;;;;5039224;28;20025;-78
2022/07/24 03:25:00;;;;;;;2.17;0.70;;;20.90;99.50;;;;;;5044800;28;20232;-78
2022/07/24 03:27:28;;;;;;;2.67;0.95;;;21.70;99.00;;;;;;5062043;28;20028;-75
2022/07/24 03:29:55;;;;;;;1.52;0.60;;;22.50;97.40;;;;;;5061618;28;20020;-81
2022/07/24 03:32:22;;;;;;;1.13;0.50;;;23.10;95.90;;;;;;5042437;28;20021;-79
2022/07/24 03:34:50;;;;;;;3.00;0.52;;;23.70;94.40;;;;;;5056466;28;20110;-80
2022/07/24 03:37:17;;;;;;;2.15;0.70;;;24.10;92.80;;;;;;5041481;28;20017;-81
2022/07/24 03:39:45;;;;;;;4.63;1.52;;;24.50;92.40;;;;;;5041252;28;20032;-80
2022/07/24 03:42:12;;;;;;;4.68;1.13;;;25.10;91.60;;;;;;5040193;28;20045;-79
2022/07/24 03:44:39;;;;;;;3.00;0.85;;;25.60;90.80;;;;;;5041243;28;20033;-75
2022/07/24 03:47:07;;;;;;;1.60;0.70;;;26.00;88.50;;;;;;5044824;28;20501;-72
2022/07/24 03:49:34;;;;;;;1.45;0.60;;;25.90;87.00;;;;;;5070012;28;20390;-75
2022/07/24 03:52:01;;;;;;;1.60;0.70;;;25.70;87.50;;;;;;5040971;28;20040;-77
2022/07/24 03:54:29;;;;;;;1.42;0.60;;;25.60;87.80;;;;;;5040056;28;20394;-80
2022/07/24 03:56:56;;;;;;;1.50;0.75;;;25.80;85.70;;;;;;5072091;28;20071;-80
2022/07/24 03:59:24;;;;;;;2.05;0.70;;;26.10;85.90;;;;;;5040059;28;20045;-79
2022/07/24 04:01:51;;;;;;;2.15;0.85;;;26.50;84.40;;;;;;5072700;28;20521;-74
2022/07/24 04:04:18;;;;;;;1.75;0.82;;;26.60;83.30;;;;;;5040093;28;20051;-78
2022/07/24 04:06:45;;;;;;;4.57;3.25;;;26.20;83.90;;;;;;5041312;28;20021;-76
2022/07/24 04:09:13;;;;;;;2.72;1.20;;;25.80;85.70;;;;;;5039831;28;20028;-75
2022/07/24 04:11:41;;;;;;;1.60;0.88;;;25.30;86.80;;;;;;5040382;28;20021;-80
2022/07/24 04:14:08;;;;;;;5.18;0.90;;;25.40;87.40;;;;;;5040136;28;20036;-78
2022/07/24 04:16:36;;;;;;;3.00;0.80;;;25.30;87.30;;;;;;5041051;28;20025;-78
2022/07/24 04:19:04;;;;;;;4.63;1.58;;;25.50;87.50;;;;;;5040718;28;20024;-80
2022/07/24 04:21:31;;;;;;;5.22;1.55;;;25.90;86.40;;;;;;5039665;28;20025;-76
2022/07/24 04:23:58;;;;;;;5.40;1.30;;;25.60;86.60;;;;;;5040369;28;20017;-74
2022/07/24 04:26:26;;;;;;;3.65;1.38;;;24.90;88.30;;;;;;5051981;28;20734;-74
2022/07/24 04:28:53;;;;;;;3.05;1.35;;;23.90;90.30;;;;;;5050079;28;20527;-74
2022/07/24 04:31:21;;;;;;;4.07;1.40;;;22.90;91.60;;;;;;5044453;28;20111;-74
2022/07/24 04:33:48;;;;;;;2.42;1.25;;;22.20;92.50;;;;;;5039240;28;20091;-73
2022/07/24 04:36:15;;;;;;;3.17;1.27;;;21.60;93.80;;;;;;5033829;28;20102;-77
2022/07/24 04:38:43;;;;;;;6.80;1.60;;;21.30;94.60;;;;;;5039877;28;20082;-75
2022/07/24 04:41:10;;;;;;;7.10;2.60;;;20.90;95.00;;;;;;5038586;28;20013;-77
2022/07/24 04:43:38;;;;;;;5.13;2.28;;;20.50;95.50;;;;;;5039773;28;20052;-79
2022/07/24 04:46:05;;;;;;;3.17;1.40;;;20.20;96.20;;;;;;5044813;28;20035;-78
2022/07/24 04:48:33;;;;;;;5.53;1.58;;;20.00;96.60;;;;;;5059345;28;20068;-80
2022/07/24 04:51:00;;;;;;;3.42;0.93;;;19.90;97.40;;;;;;5040193;28;20031;-80
2022/07/24 04:53:29;;;;;;;4.75;1.13;;;19.80;97.70;;;;;;5039517;28;20037;-79
2022/07/24 04:55:57;;;;;;;5.15;1.23;;;19.50;97.80;;;;;;5040492;28;20029;-79
2022/07/24 04:58:25;;;;;;;4.15;0.93;;;19.40;98.10;;;;;;5039594;28;20032;-79
2022/07/24 05:00:53;;;;;;;4.78;1.30;;;19.20;98.40;;;;;;5040293;28;20163;-80
2022/07/24 05:03:20;;;;;;;7.15;3.30;;;19.10;98.90;;;;;;5039297;28;20017;-80
2022/07/24 05:05:48;;;;;;;8.68;3.90;;;18.90;99.40;;;;;;5044662;28;20099;-80
2022/07/24 05:08:15;;;;;;;5.05;1.88;;;18.80;99.60;;;;;;5059840;28;20017;-77
2022/07/24 05:10:42;;;;;;;4.20;1.40;;;18.80;99.40;;;;;;5059404;28;20493;-80
2022/07/24 05:13:10;;;;;;;3.05;1.45;;;18.90;99.00;;;;;;5035840;28;20032;-81
2022/07/24 05:15:37;;;;;;;9.75;2.20;;;19.10;99.10;;;;;;5035051;28;20033;-78
2022/07/24 05:18:04;;;;;;;3.83;1.50;;;19.20;99.10;;;;;;5035754;28;20029;-79
2022/07/24 05:20:32;;;;;;;5.63;1.50;;;19.40;99.30;;;;;;5037769;28;20560;-78
2022/07/24 05:22:59;;;;;;;4.88;1.30;;;19.70;99.60;;;;;;5036931;28;20535;-78
2022/07/24 05:25:27;;;;;;;5.57;2.35;;;19.90;99.40;;;;;;5036715;28;20033;-79
2022/07/24 05:27:54;;;;;;;5.40;2.65;;;20.10;99.60;;;;;;5035859;28;20757;-79
2022/07/24 05:30:22;;;;;;;6.32;1.80;;;20.20;99.50;;;;;;5038001;28;20029;-79
2022/07/24 05:32:50;;;;;;;5.95;1.33;;;20.30;99.40;;;;;;5037819;28;20025;-80
2022/07/24 05:35:17;;;;;;;5.75;1.45;;;20.30;99.10;;;;;;5037006;28;20037;-81
2022/07/24 05:37:44;;;;;;;5.03;1.23;;;20.40;98.90;;;;;;5037560;28;20400;-75
2022/07/24 05:40:12;;;;;;;5.68;1.73;;;20.20;99.20;;;;;;5037964;28;20025;-74
2022/07/24 05:42:39;;;;;;;4.38;1.27;;;20.20;99.30;;;;;;5037640;28;20075;-77
2022/07/24 05:45:07;;;;;;;5.82;1.23;;;20.20;99.50;;;;;;5040494;28;20033;-76
2022/07/24 05:47:39;;;;;;;5.88;0.95;;;20.30;99.20;;;;;;5037486;28;20125;-77
2022/07/24 05:50:11;;;;;;;4.18;1.50;;;20.10;98.00;;;;;;5038592;28;20089;-76
2022/07/24 05:52:39;;;;;;;2.88;1.45;;;19.90;97.70;;;;;;5038874;28;20025;-78
2022/07/24 05:55:08;;;;;;;3.63;1.73;;;19.80;98.60;;;;;;5037719;28;20520;-76
2022/07/24 05:57:36;;;;;;;5.07;1.25;;;19.70;98.10;;;;;;5037907;28;20832;-78
2022/07/24 06:00:04;;;;;;;6.25;1.17;;;19.60;98.70;;;;;;5038500;28;20158;-81
2022/07/24 06:02:32;;;;;;;5.07;2.20;;;19.50;99.30;;;;;;5036108;28;20018;-77
2022/07/24 06:04:59;;;;;;;4.35;1.10;;;19.40;99.90;;;;;;5036976;28;20021;-79
2022/07/24 06:07:26;;;;;;;3.17;1.33;;;19.30;99.90;;;;;;5035542;28;20016;-77
2022/07/24 06:09:53;;;;;;;5.18;3.85;;;19.40;99.90;;;;;;5039927;28;20036;-80
2022/07/24 06:12:21;;;;;;;17.50;14.85;;;19.60;99.90;;;;;;5036115;28;20097;-80
2022/07/24 06:14:48;;;;;;;11.35;7.03;;;19.70;99.90;;;;;;5038680;28;20033;-78
2022/07/24 06:17:15;;;;;;;6.88;2.20;;;19.90;99.90;;;;;;5035437;28;20096;-75
2022/07/24 06:19:43;;;;;;;7.00;1.80;;;20.20;99.90;;;;;;5051844;28;20063;-76
2022/07/24 06:22:13;;;;;;;4.55;1.50;;;20.40;99.70;;;;;;5038095;28;20055;-78
2022/07/24 06:24:44;;;;;;;4.55;1.88;;;20.60;99.20;;;;;;5035824;28;20021;-80
2022/07/24 06:27:11;;;;;;;6.95;1.75;;;20.50;99.40;;;;;;5040341;28;20017;-79
2022/07/24 06:29:39;;;;;;;5.78;2.08;;;20.30;99.70;;;;;;5041009;28;20100;-81
2022/07/24 06:32:07;;;;;;;4.15;1.20;;;20.10;99.80;;;;;;5040173;28;20094;-80
2022/07/24 06:34:34;;;;;;;6.35;1.83;;;19.90;99.90;;;;;;5041614;28;20547;-80
2022/07/24 06:37:02;;;;;;;3.25;1.70;;;19.70;99.90;;;;;;5043444;28;20021;-77
2022/07/24 06:39:30;;;;;;;5.65;2.75;;;19.30;99.90;;;;;;5026392;28;20054;-76
2022/07/24 06:41:57;;;;;;;6.40;2.47;;;19.00;99.90;;;;;;5042826;28;20022;-78
2022/07/24 06:44:25;;;;;;;7.03;2.00;;;18.90;99.90;;;;;;5040270;28;20122;-76
2022/07/24 06:46:52;;;;;;;7.97;2.38;;;18.60;99.90;;;;;;5040624;28;20021;-79
2022/07/24 06:49:20;;;;;;;11.07;2.33;;;18.40;99.90;;;;;;5041601;28;20013;-78
2022/07/24 06:51:54;;;;;;;3.55;1.60;;;18.10;99.90;;;;;;5042814;28;20106;-78
2022/07/24 06:54:21;;;;;;;6.10;2.50;;;18.00;99.90;;;;;;5048594;28;20041;-78
2022/07/24 06:56:48;;;;;;;5.18;1.95;;;17.80;99.90;;;;;;5052340;28;20021;-79
2022/07/24 06:59:16;;;;;;;8.90;1.73;;;17.60;99.90;;;;;;5062341;28;20055;-78
2022/07/24 07:01:43;;;;;;;3.50;1.48;;;17.50;99.90;;;;;;5060547;28;20032;-80
2022/07/24 07:04:11;;;;;;;6.18;1.50;;;17.30;99.90;;;;;;5057070;28;20025;-76
2022/07/24 07:06:38;;;;;;;8.52;2.30;;;17.20;99.90;;;;;;5045719;28;20835;-77
2022/07/24 07:09:06;;;;;;;6.78;2.00;;;17.00;99.90;;;;;;5054866;28;20519;-79
2022/07/24 07:11:33;;;;;;;7.53;2.72;;;17.00;99.90;;;;;;5048001;28;20024;-74
2022/07/24 07:14:02;;;;;;;7.18;5.32;;;16.80;99.90;;;;;;5050901;28;20052;-76
2022/07/24 07:16:29;;;;;;;12.65;11.30;;;16.80;99.90;;;;;;5042719;28;20025;-78
2022/07/24 07:18:56;;;;;;;7.22;5.30;;;16.70;99.90;;;;;;5038779;28;20428;-78
2022/07/24 07:21:24;;;;;;;9.95;3.80;;;16.60;99.90;;;;;;5021087;28;20013;-78
2022/07/24 07:24:11;;;;;;;21.50;18.08;;;16.50;99.90;;;;;;5026533;28;20108;-80
2022/07/24 07:26:42;;;;;;;14.27;8.60;;;16.40;99.90;;;;;;5035098;28;20025;-80
2022/07/24 07:29:09;;;;;;;13.20;7.07;;;16.30;99.90;;;;;;5041414;28;20021;-82
2022/07/24 07:31:37;;;;;;;7.75;4.28;;;16.20;99.90;;;;;;5040574;28;20075;-79
2022/07/24 07:34:05;;;;;;;8.52;3.35;;;16.10;99.90;;;;;;5041649;28;20473;-79
2022/07/24 07:36:33;;;;;;;8.60;3.22;;;16.00;99.90;;;;;;5037748;28;20033;-81
2022/07/24 07:39:00;;;;;;;7.15;4.05;;;15.90;99.90;;;;;;5039077;28;20068;-80
2022/07/24 07:41:28;;;;;;;7.38;3.47;;;15.70;99.90;;;;;;5039153;28;20100;-80
2022/07/24 07:43:58;;;;;;;8.10;3.17;;;15.60;99.90;;;;;;5040086;28;20033;-78
2022/07/24 07:46:41;;;;;;;6.35;3.15;;;15.60;99.90;;;;;;5038612;28;20075;-80
2022/07/24 07:49:09;;;;;;;10.88;4.78;;;15.50;99.90;;;;;;5032385;28;20028;-82
2022/07/24 07:51:36;;;;;;;5.85;2.45;;;15.40;99.90;;;;;;5070977;28;20895;-78
2022/07/24 07:54:03;;;;;;;11.60;2.80;;;15.30;99.90;;;;;;5040745;28;20036;-78
2022/07/24 07:56:32;;;;;;;7.95;3.22;;;15.20;99.90;;;;;;5043961;28;20220;-78
2022/07/24 07:58:59;;;;;;;7.40;3.90;;;15.20;99.90;;;;;;5076605;28;20028;-79
2022/07/24 08:01:27;;;;;;;7.03;3.40;;;15.10;99.90;;;;;;5051178;28;20103;-79
2022/07/24 08:03:58;;;;;;;9.70;3.80;;;15.00;99.90;;;;;;5060441;28;20033;-80
2022/07/24 08:06:25;;;;;;;10.45;5.00;;;15.00;99.90;;;;;;5043884;28;20033;-78
2022/07/24 08:08:52;;;;;;;8.90;4.57;;;14.90;99.90;;;;;;5040104;28;20896;-80
2022/07/24 08:11:20;;;;;;;9.52;4.43;;;14.90;99.90;;;;;;5040963;28;20228;-79
2022/07/24 08:13:59;;;;;;;8.52;3.88;;;14.80;99.90;;;;;;5040025;28;20029;-77
2022/07/24 08:16:27;;;;;;;7.38;3.42;;;14.70;99.90;;;;;;5038992;28;20152;-76
2022/07/24 08:18:55;;;;;;;8.18;3.25;;;14.70;99.90;;;;;;5040018;28;20104;-77
2022/07/24 08:21:22;;;;;;;7.63;3.45;;;14.70;99.90;;;;;;5041042;28;20029;-79
2022/07/24 08:23:50;;;;;;;7.25;3.88;;;14.60;99.90;;;;;;5038756;28;20158;-75
2022/07/24 08:26:18;;;;;;;11.43;4.60;;;14.60;99.90;;;;;;5040167;28;20096;-78
2022/07/24 08:28:45;;;;;;;9.68;5.95;;;14.50;99.90;;;;;;5052371;28;20056;-79
2022/07/24 08:31:13;;;;;;;12.98;6.70;;;14.50;99.90;;;;;;5060319;28;20033;-78
2022/07/24 08:33:40;;;;;;;16.27;6.38;;;14.40;99.90;;;;;;5058946;28;20039;-77
2022/07/24 08:36:08;;;;;;;11.77;5.32;;;14.40;99.90;;;;;;5044742;28;20025;-78
2022/07/24 08:38:36;;;;;;;9.45;4.70;;;14.30;99.90;;;;;;5039663;28;20025;-75
2022/07/24 08:41:03;;;;;;;12.70;6.00;;;14.30;99.90;;;;;;5039489;28;20060;-76
2022/07/24 08:43:31;;;;;;;16.50;8.13;;;14.20;99.90;;;;;;5039546;28;20055;-79
2022/07/24 08:46:03;;;;;;;16.45;8.38;;;14.20;99.90;;;;;;5043184;28;20204;-80
2022/07/24 08:48:31;;;;;;;11.98;7.13;;;14.20;99.90;;;;;;5047781;28;20050;-79
2022/07/24 08:51:00;;;;;;;15.05;7.72;;;14.10;99.90;;;;;;5038280;28;20021;-76
2022/07/24 08:53:27;;;;;;;15.30;7.93;;;14.10;99.90;;;;;;5040069;28;20442;-79
2022/07/24 08:55:55;;;;;;;11.88;8.10;;;14.00;99.90;;;;;;5039884;28;20025;-75
2022/07/24 08:58:22;;;;;;;17.35;9.10;;;14.00;99.90;;;;;;5039786;28;20040;-77
2022/07/24 09:00:50;;;;;;;14.32;9.48;;;14.00;99.90;;;;;;5039651;28;20028;-80
2022/07/24 09:03:17;;;;;;;15.27;9.98;;;13.90;99.90;;;;;;5039617;28;20021;-81
2022/07/24 09:05:58;;;;;;;19.80;11.80;;;13.90;99.90;;;;;;5039418;28;20055;-79
2022/07/24 09:08:29;;;;;;;20.98;11.52;;;13.80;99.90;;;;;;5039843;28;20043;-78
2022/07/24 09:11:03;;;;;;;17.98;13.15;;;13.80;99.90;;;;;;5039379;28;20021;-78
2022/07/24 09:16:24;;;;;;;22.50;12.30;;;13.70;99.90;;;;;;5017265;28;20436;-76
2022/07/24 09:19:05;;;;;;;19.70;12.13;;;13.70;99.90;;;;;;5039527;28;20130;-74
2022/07/24 09:21:38;;;;;;;20.67;13.23;;;13.70;99.90;;;;;;5038655;28;20414;-78
2022/07/24 09:24:25;;;;;;;17.38;12.38;;;13.70;99.90;;;;;;5050693;28;20308;-79
2022/07/24 09:26:57;;;;;;;20.95;13.50;;;13.60;99.90;;;;;;5044699;28;20044;-79
2022/07/24 09:29:26;;;;;;;21.88;14.00;;;13.60;99.90;;;;;;5039982;28;20104;-79
2022/07/24 09:31:59;;;;;;;20.25;13.55;;;13.60;99.90;;;;;;5039557;28;20822;-80
2022/07/24 09:34:29;;;;;;;18.42;12.80;;;13.50;99.90;;;;;;5071463;28;20127;-78
2022/07/24 09:37:00;;;;;;;22.63;12.68;;;13.50;99.90;;;;;;5055711;28;20036;-79
2022/07/24 09:39:29;;;;;;;19.27;12.17;;;13.60;99.90;;;;;;5060378;28;20078;-77
2022/07/24 09:41:58;;;;;;;20.33;12.50;;;13.50;99.90;;;;;;5056939;28;20033;-80
2022/07/24 09:44:26;;;;;;;17.60;10.48;;;13.50;99.90;;;;;;5039036;28;20057;-79
2022/07/24 09:47:02;;;;;;;19.48;11.93;;;13.40;99.90;;;;;;5038192;28;20044;-80
2022/07/24 09:49:30;;;;;;;18.88;10.70;;;13.40;99.90;;;;;;5039677;28;20592;-76
2022/07/24 09:52:07;;;;;;;19.95;11.43;;;13.40;99.90;;;;;;5038917;28;20078;-80
2022/07/24 09:54:40;;;;;;;15.38;9.52;;;13.30;99.90;;;;;;5048771;28;20037;-75
2022/07/24 09:57:17;;;;;;;14.95;8.35;;;13.30;99.90;;;;;;5063104;28;20038;-82
2022/07/24 09:59:55;;;;;;;12.93;8.02;;;13.30;99.90;;;;;;5047803;28;20032;-75
2022/07/24 10:02:24;;;;;;;14.52;8.65;;;13.30;99.90;;;;;;5048986;28;20029;-77
2022/07/24 10:04:52;;;;;;;11.07;7.88;;;13.30;99.90;;;;;;5042752;28;20351;-76
2022/07/24 10:07:21;;;;;;;14.18;8.90;;;13.20;99.90;;;;;;5043418;28;20017;-76
2022/07/24 10:09:51;;;;;;;17.02;10.85;;;13.20;99.90;;;;;;5042118;28;20109;-74
2022/07/24 10:12:30;;;;;;;15.55;8.25;;;13.20;99.90;;;;;;5043090;28;20028;-73
2022/07/24 10:14:59;;;;;;;20.85;9.82;;;13.20;99.90;;;;;;5042050;28;20029;-72
2022/07/24 10:17:48;;;;;;;13.55;7.63;;;13.20;99.90;;;;;;5043053;28;20196;-74
2022/07/24 10:20:37;;;;;;;11.55;7.93;;;13.20;99.90;;;;;;5044280;28;20418;-73
2022/07/24 10:23:06;;;;;;;10.98;7.15;;;13.10;99.90;;;;;;5062794;28;20103;-73
2022/07/24 10:26:04;;;;;;;13.38;7.18;;;13.10;99.90;;;;;;5063071;28;20017;-77
2022/07/24 10:28:38;;;;;;;12.63;7.20;;;13.00;99.90;;;;;;5062719;28;20020;-75
2022/07/24 10:31:13;;;;;;;9.45;6.55;;;13.00;99.90;;;;;;5046171;28;20068;-80
2022/07/24 10:33:42;;;;;;;12.52;6.85;;;13.00;99.90;;;;;;5042732;28;20021;-79
2022/07/24 10:36:25;;;;;;;16.77;10.38;;;12.90;99.90;;;;;;5042930;28;20032;-78
2022/07/24 10:39:03;;;;;;;15.05;9.82;;;12.90;99.90;;;;;;5042786;28;20381;-76
2022/07/24 10:41:32;;;;;;;13.65;8.68;;;12.80;99.90;;;;;;5041707;28;20389;-76
2022/07/24 10:44:20;;;;;;;20.17;10.27;;;12.80;99.90;;;;;;5041381;28;20120;-81
2022/07/24 10:47:09;;;;;;;13.60;9.77;;;12.80;99.90;;;;;;5037227;28;20058;-80
2022/07/24 10:49:39;;;;;;;18.40;10.13;;;12.80;99.90;;;;;;5055258;28;20024;-78
2022/07/24 10:52:06;;;;;;;17.55;11.07;;;12.70;99.90;;;;;;5061754;28;20469;-79
2022/07/24 10:54:34;;;;;;;15.30;11.48;;;12.70;99.90;;;;;;5060936;28;20040;-77
2022/07/24 10:57:01;;;;;;;17.13;10.88;;;12.70;99.90;;;;;;5041533;28;20666;-73
2022/07/24 10:59:42;;;;;;;18.77;11.93;;;12.60;99.90;;;;;;5042300;28;20033;-80
2022/07/24 11:02:28;;;;;;;18.67;11.57;;;12.60;99.90;;;;;;5042250;28;20029;-80
2022/07/24 11:05:31;;;;;;;19.77;11.77;;;12.50;99.90;;;;;;5041625;28;20470;-80
2022/07/24 11:08:29;;;;;;;19.45;13.23;;;12.50;99.90;;;;;;5042036;28;20029;-78
2022/07/24 11:11:00;;;;;;;20.50;13.45;;;12.50;99.90;;;;;;5041771;28;20056;-77
2022/07/24 11:13:34;;;;;;;21.38;16.10;;;12.50;99.90;;;;;;5040866;28;20470;-79
2022/07/24 11:16:16;;;;;;;22.83;16.52;;;12.40;99.90;;;;;;5040354;28;20028;-72
2022/07/24 11:19:03;;;;;;;22.08;15.45;;;12.40;99.90;;;;;;5036288;28;20029;-75
2022/07/24 11:21:37;;;;;;;24.50;16.42;;;12.40;99.90;;;;;;5041884;28;20028;-77
2022/07/24 11:26:58;;;;;;;23.00;16.20;;;12.30;99.90;;;;;;5041323;28;20041;-78
2022/07/24 11:29:32;;;;;;;20.73;14.95;;;12.30;99.90;;;;;;5041632;28;20488;-82
2022/07/24 11:32:07;;;;;;;20.88;14.57;;;12.30;99.90;;;;;;5047136;28;20024;-80
2022/07/24 11:34:36;;;;;;;22.42;16.20;;;12.30;99.90;;;;;;5041333;28;20500;-74
2022/07/24 11:37:06;;;;;;;21.65;14.48;;;12.30;99.90;;;;;;5020373;28;20037;-81
2022/07/24 11:39:36;;;;;;;23.15;15.02;;;12.20;99.90;;;;;;5041462;28;20033;-75
2022/07/24 11:42:07;;;;;;;17.92;14.43;;;12.30;99.90;;;;;;5040970;28;20111;-80
2022/07/24 11:44:35;;;;;;;20.25;14.63;;;12.20;99.90;;;;;;5045542;28;20035;-74
2022/07/24 11:47:13;;;;;;;24.85;15.75;;;12.20;99.90;;;;;;5021381;28;20161;-75
2022/07/24 11:50:04;;;;;;;21.45;15.77;;;12.20;99.90;;;;;;5021640;28;20072;-75
2022/07/24 11:52:38;;;;;;;25.02;14.35;;;12.10;99.90;;;;;;5021027;28;20049;-79
2022/07/24 11:55:14;;;;;;;22.52;15.15;;;12.20;99.90;;;;;;5024642;28;20060;-79
2022/07/24 11:57:44;;;;;;;22.13;14.10;;;12.10;99.90;;;;;;5041123;28;20502;-77
2022/07/24 12:00:17;;;;;;;24.20;14.77;;;12.10;99.90;;;;;;5039859;28;20033;-71
2022/07/24 12:02:48;;;;;;;22.80;14.63;;;12.10;99.90;;;;;;5040974;28;20013;-74
2022/07/24 12:05:33;;;;;;;18.45;13.35;;;12.10;99.90;;;;;;5040011;28;20047;-71
2022/07/24 12:08:03;;;;;;;22.95;14.68;;;12.00;99.90;;;;;;5040482;28;20017;-72
2022/07/24 12:10:31;;;;;;;23.23;15.05;;;12.00;99.90;;;;;;5040168;28;20025;-71
2022/07/24 12:12:58;;;;;;;19.05;13.25;;;12.00;99.90;;;;;;5054493;28;20412;-70
2022/07/24 12:15:27;;;;;;;20.55;15.20;;;12.00;99.90;;;;;;5053864;28;20094;-71
2022/07/24 12:17:55;;;;;;;22.30;14.80;;;12.00;99.90;;;;;;5047572;28;20078;-75
2022/07/24 12:20:30;;;;;;;20.73;13.20;;;12.00;99.90;;;;;;5060612;28;20021;-71
2022/07/24 12:23:00;;;;;;;21.42;15.02;;;12.00;99.90;;;;;;5076375;28;20444;-74
2022/07/24 12:25:29;;;;;;;23.38;14.52;;;11.90;99.90;;;;;;5053808;28;20091;-78
2022/07/24 12:28:04;;;;;;;18.55;14.10;;;11.90;99.90;;;;;;5041842;28;20029;-71
2022/07/24 12:30:33;;;;;;;18.67;13.48;;;11.90;99.90;;;;;;5041823;28;20024;-72
2022/07/24 12:33:17;;;;;;;16.25;13.48;;;11.80;99.90;;;;;;5040529;28;20107;-72
2022/07/24 12:36:15;;;;;;;21.33;14.73;;;11.80;99.90;;;;;;5040639;28;20215;-71
2022/07/24 12:38:52;;;;;;;20.20;14.85;;;11.80;99.90;;;;;;5039902;28;20025;-75
2022/07/24 12:41:22;;;;;;;18.63;15.60;;;11.80;99.90;;;;;;5039075;28;20009;-75
2022/07/24 12:43:57;;;;;;;17.52;13.70;;;11.70;99.90;;;;;;5039900;28;20387;-72
2022/07/24 12:46:42;;;;;;;23.00;14.80;;;11.70;99.90;;;;;;5040219;28;20436;-71
2022/07/24 12:49:11;;;;;;;28.13;17.55;;;11.70;99.90;;;;;;5038117;28;20021;-70
2022/07/24 12:52:02;;;;;;;24.55;20.92;;;11.70;99.90;;;;;;5058215;28;20044;-72
2022/07/24 12:54:35;;;;;;;26.95;19.60;;;11.60;99.90;;;;;;5058966;28;20043;-70
2022/07/24 12:57:12;;;;;;;28.52;23.25;;;11.70;99.90;;;;;;5021369;28;20024;-71
2022/07/24 12:59:44;;;;;;;32.38;24.52;;;11.60;99.90;;;;;;5019514;28;20108;-71
2022/07/24 13:02:16;;;;;;;29.98;23.55;;;11.60;99.90;;;;;;5019633;28;20095;-70